sensor_id;sensor_type;location;lat;lon;timestamp;temperature;humidity
12700;DHT22;6414;49.570;6.060;2023-05-17T00:00:33;6.00;99.90
12700;DHT22;6414;49.570;6.060;2023-05-17T00:03:20;6.00;99.90
12700;DHT22;6414;49.570;6.060;2023-05-17T00:06:06;6.10;99.90
12700;DHT22;6414;49.570;6.060;2023-05-17T00:08:53;6.10;99.90
12700;DHT22;6414;49.570;6.060;2023-05-17T00:11:39;6.10;99.90
12700;DHT22;6414;49.570;6.060;2023-05-17T00:14:25;6.10;99.90
12700;DHT22;6414;49.570;6.060;2023-05-17T00:17:11;6.00;99.90
12700;DHT22;6414;49.570;6.060;2023-05-17T00:19:58;6.20;99.90
12700;DHT22;6414;49.570;6.060;2023-05-17T00:22:44;6.20;99.90
12700;DHT22;6414;49.570;6.060;2023-05-17T00:25:30;6.20;99.90
12700;DHT22;6414;49.570;6.060;2023-05-17T00:28:16;6.00;99.90
12700;DHT22;6414;49.570;6.060;2023-05-17T00:31:03;5.80;99.90
12700;DHT22;6414;49.570;6.060;2023-05-17T00:33:49;5.60;99.90
12700;DHT22;6414;49.570;6.060;2023-05-17T00:36:35;5.70;99.90
12700;DHT22;6414;49.570;6.060;2023-05-17T00:39:22;5.20;99.90
12700;DHT22;6414;49.570;6.060;2023-05-17T00:42:08;5.20;99.90
12700;DHT22;6414;49.570;6.060;2023-05-17T00:44:54;5.30;99.90
12700;DHT22;6414;49.570;6.060;2023-05-17T00:47:40;5.60;99.90
12700;DHT22;6414;49.570;6.060;2023-05-17T00:50:27;5.60;99.90
12700;DHT22;6414;49.570;6.060;2023-05-17T00:53:14;5.50;99.90
12700;DHT22;6414;49.570;6.060;2023-05-17T00:55:59;5.80;99.90
12700;DHT22;6414;49.570;6.060;2023-05-17T00:58:46;5.80;99.90
12700;DHT22;6414;49.570;6.060;2023-05-17T01:01:32;5.70;99.90
12700;DHT22;6414;49.570;6.060;2023-05-17T01:04:18;5.80;99.90
12700;DHT22;6414;49.570;6.060;2023-05-17T01:07:05;5.80;99.90
12700;DHT22;6414;49.570;6.060;2023-05-17T01:09:52;5.90;99.90
12700;DHT22;6414;49.570;6.060;2023-05-17T01:15:42;6.00;99.90
12700;DHT22;6414;49.570;6.060;2023-05-17T01:18:36;6.00;99.90
12700;DHT22;6414;49.570;6.060;2023-05-17T01:21:36;6.00;99.90
12700;DHT22;6414;49.570;6.060;2023-05-17T01:24:46;6.00;99.90
12700;DHT22;6414;49.570;6.060;2023-05-17T01:27:27;5.90;99.90
12700;DHT22;6414;49.570;6.060;2023-05-17T01:30:13;5.90;99.90
12700;DHT22;6414;49.570;6.060;2023-05-17T01:32:59;5.80;99.90
12700;DHT22;6414;49.570;6.060;2023-05-17T01:35:46;5.60;99.90
12700;DHT22;6414;49.570;6.060;2023-05-17T01:38:32;5.60;99.90
12700;DHT22;6414;49.570;6.060;2023-05-17T01:41:35;5.40;99.90
12700;DHT22;6414;49.570;6.060;2023-05-17T01:44:30;5.50;99.90
12700;DHT22;6414;49.570;6.060;2023-05-17T01:47:22;5.50;99.90
12700;DHT22;6414;49.570;6.060;2023-05-17T01:50:05;5.60;99.90
12700;DHT22;6414;49.570;6.060;2023-05-17T01:53:10;5.60;99.90
12700;DHT22;6414;49.570;6.060;2023-05-17T01:56:08;5.60;99.90
12700;DHT22;6414;49.570;6.060;2023-05-17T01:58:54;5.50;99.90
12700;DHT22;6414;49.570;6.060;2023-05-17T02:01:40;5.50;99.90
12700;DHT22;6414;49.570;6.060;2023-05-17T02:04:26;5.60;99.90
12700;DHT22;6414;49.570;6.060;2023-05-17T02:07:12;5.50;99.90
12700;DHT22;6414;49.570;6.060;2023-05-17T02:09:58;5.50;99.90
12700;DHT22;6414;49.570;6.060;2023-05-17T02:12:44;5.40;99.90
12700;DHT22;6414;49.570;6.060;2023-05-17T02:16:07;5.30;99.90
12700;DHT22;6414;49.570;6.060;2023-05-17T02:18:53;5.30;99.90
12700;DHT22;6414;49.570;6.060;2023-05-17T02:21:39;5.30;99.90
12700;DHT22;6414;49.570;6.060;2023-05-17T02:24:25;5.40;99.90
12700;DHT22;6414;49.570;6.060;2023-05-17T02:27:11;5.50;99.90
12700;DHT22;6414;49.570;6.060;2023-05-17T02:29:57;5.70;99.90
12700;DHT22;6414;49.570;6.060;2023-05-17T02:32:43;5.80;99.90
12700;DHT22;6414;49.570;6.060;2023-05-17T02:35:29;6.10;99.90
12700;DHT22;6414;49.570;6.060;2023-05-17T02:38:16;6.20;99.90
12700;DHT22;6414;49.570;6.060;2023-05-17T02:41:02;6.30;99.90
12700;DHT22;6414;49.570;6.060;2023-05-17T02:43:48;6.50;99.90
12700;DHT22;6414;49.570;6.060;2023-05-17T02:46:34;6.50;99.90
12700;DHT22;6414;49.570;6.060;2023-05-17T02:49:20;6.50;99.90
12700;DHT22;6414;49.570;6.060;2023-05-17T02:52:06;6.40;99.90
12700;DHT22;6414;49.570;6.060;2023-05-17T02:54:53;6.40;99.90
12700;DHT22;6414;49.570;6.060;2023-05-17T02:57:39;6.20;99.90
12700;DHT22;6414;49.570;6.060;2023-05-17T03:00:25;6.20;99.90
12700;DHT22;6414;49.570;6.060;2023-05-17T03:03:11;6.00;99.90
12700;DHT22;6414;49.570;6.060;2023-05-17T03:06:00;5.70;99.90
12700;DHT22;6414;49.570;6.060;2023-05-17T03:08:46;5.70;99.90
12700;DHT22;6414;49.570;6.060;2023-05-17T03:11:32;5.70;99.90
12700;DHT22;6414;49.570;6.060;2023-05-17T03:14:18;5.50;99.90
12700;DHT22;6414;49.570;6.060;2023-05-17T03:17:04;5.40;99.90
12700;DHT22;6414;49.570;6.060;2023-05-17T03:19:50;5.40;99.90
12700;DHT22;6414;49.570;6.060;2023-05-17T03:22:37;5.40;99.90
12700;DHT22;6414;49.570;6.060;2023-05-17T03:25:22;5.20;99.90
12700;DHT22;6414;49.570;6.060;2023-05-17T03:28:08;5.10;99.90
12700;DHT22;6414;49.570;6.060;2023-05-17T03:30:55;5.10;99.90
12700;DHT22;6414;49.570;6.060;2023-05-17T03:33:42;5.30;99.90
12700;DHT22;6414;49.570;6.060;2023-05-17T03:36:28;5.30;99.90
12700;DHT22;6414;49.570;6.060;2023-05-17T03:39:14;5.30;99.90
12700;DHT22;6414;49.570;6.060;2023-05-17T03:42:00;5.40;99.90
12700;DHT22;6414;49.570;6.060;2023-05-17T03:44:46;5.40;99.90
12700;DHT22;6414;49.570;6.060;2023-05-17T03:47:32;5.50;99.90
12700;DHT22;6414;49.570;6.060;2023-05-17T03:50:18;5.60;99.90
12700;DHT22;6414;49.570;6.060;2023-05-17T03:53:04;5.50;99.90
12700;DHT22;6414;49.570;6.060;2023-05-17T03:55:50;5.70;99.90
12700;DHT22;6414;49.570;6.060;2023-05-17T03:58:36;5.70;99.90
12700;DHT22;6414;49.570;6.060;2023-05-17T04:01:22;5.70;99.90
12700;DHT22;6414;49.570;6.060;2023-05-17T04:04:08;5.80;99.90
12700;DHT22;6414;49.570;6.060;2023-05-17T04:06:55;5.70;99.90
12700;DHT22;6414;49.570;6.060;2023-05-17T04:09:41;5.70;99.90
12700;DHT22;6414;49.570;6.060;2023-05-17T04:12:28;5.60;99.90
12700;DHT22;6414;49.570;6.060;2023-05-17T04:15:14;5.50;99.90
12700;DHT22;6414;49.570;6.060;2023-05-17T04:18:00;5.50;99.90
12700;DHT22;6414;49.570;6.060;2023-05-17T04:20:47;5.90;99.90
12700;DHT22;6414;49.570;6.060;2023-05-17T04:23:33;5.90;99.90
12700;DHT22;6414;49.570;6.060;2023-05-17T04:26:19;5.80;99.90
12700;DHT22;6414;49.570;6.060;2023-05-17T04:29:05;5.90;99.90
12700;DHT22;6414;49.570;6.060;2023-05-17T04:31:51;5.90;99.90
12700;DHT22;6414;49.570;6.060;2023-05-17T04:34:37;5.90;99.90
12700;DHT22;6414;49.570;6.060;2023-05-17T04:37:24;5.70;99.90
12700;DHT22;6414;49.570;6.060;2023-05-17T04:40:10;5.70;99.90
12700;DHT22;6414;49.570;6.060;2023-05-17T04:42:56;5.70;99.90
12700;DHT22;6414;49.570;6.060;2023-05-17T04:45:42;5.60;99.90
12700;DHT22;6414;49.570;6.060;2023-05-17T04:48:29;5.70;99.90
12700;DHT22;6414;49.570;6.060;2023-05-17T04:51:14;5.70;99.90
12700;DHT22;6414;49.570;6.060;2023-05-17T04:54:01;5.60;99.90
12700;DHT22;6414;49.570;6.060;2023-05-17T04:56:47;5.60;99.90
12700;DHT22;6414;49.570;6.060;2023-05-17T04:59:33;5.50;99.90
12700;DHT22;6414;49.570;6.060;2023-05-17T05:02:18;5.30;99.90
12700;DHT22;6414;49.570;6.060;2023-05-17T05:05:05;5.40;99.90
12700;DHT22;6414;49.570;6.060;2023-05-17T05:07:51;5.50;99.90
12700;DHT22;6414;49.570;6.060;2023-05-17T05:10:38;5.60;99.90
12700;DHT22;6414;49.570;6.060;2023-05-17T05:13:24;5.70;99.90
12700;DHT22;6414;49.570;6.060;2023-05-17T05:19:21;5.90;99.90
12700;DHT22;6414;49.570;6.060;2023-05-17T05:22:07;6.10;99.90
12700;DHT22;6414;49.570;6.060;2023-05-17T05:24:54;6.10;99.90
12700;DHT22;6414;49.570;6.060;2023-05-17T05:27:42;6.20;99.90
12700;DHT22;6414;49.570;6.060;2023-05-17T05:30:26;6.30;99.90
12700;DHT22;6414;49.570;6.060;2023-05-17T05:33:12;6.30;99.90
12700;DHT22;6414;49.570;6.060;2023-05-17T05:35:58;6.50;99.90
12700;DHT22;6414;49.570;6.060;2023-05-17T05:38:44;6.60;99.90
12700;DHT22;6414;49.570;6.060;2023-05-17T05:41:30;6.70;99.90
12700;DHT22;6414;49.570;6.060;2023-05-17T05:44:16;6.70;99.90
12700;DHT22;6414;49.570;6.060;2023-05-17T05:47:02;6.90;99.90
12700;DHT22;6414;49.570;6.060;2023-05-17T05:49:49;6.90;99.90
12700;DHT22;6414;49.570;6.060;2023-05-17T05:52:35;7.00;99.90
12700;DHT22;6414;49.570;6.060;2023-05-17T05:55:21;7.10;99.90
12700;DHT22;6414;49.570;6.060;2023-05-17T05:58:07;7.20;99.90
12700;DHT22;6414;49.570;6.060;2023-05-17T06:00:53;7.30;99.90
12700;DHT22;6414;49.570;6.060;2023-05-17T06:03:39;7.50;99.90
12700;DHT22;6414;49.570;6.060;2023-05-17T06:06:29;7.70;99.90
12700;DHT22;6414;49.570;6.060;2023-05-17T06:09:16;7.70;99.90
12700;DHT22;6414;49.570;6.060;2023-05-17T06:12:02;7.90;99.90
12700;DHT22;6414;49.570;6.060;2023-05-17T06:14:49;8.00;99.90
12700;DHT22;6414;49.570;6.060;2023-05-17T06:17:36;8.10;99.90
12700;DHT22;6414;49.570;6.060;2023-05-17T06:20:22;8.10;99.90
12700;DHT22;6414;49.570;6.060;2023-05-17T06:23:08;8.10;99.90
12700;DHT22;6414;49.570;6.060;2023-05-17T06:25:54;8.40;99.90
12700;DHT22;6414;49.570;6.060;2023-05-17T06:28:41;8.40;99.90
12700;DHT22;6414;49.570;6.060;2023-05-17T06:31:28;8.60;99.90
12700;DHT22;6414;49.570;6.060;2023-05-17T06:34:14;8.60;99.90
12700;DHT22;6414;49.570;6.060;2023-05-17T06:37:00;8.70;99.90
12700;DHT22;6414;49.570;6.060;2023-05-17T06:39:46;8.70;99.90
12700;DHT22;6414;49.570;6.060;2023-05-17T06:42:32;8.90;99.90
12700;DHT22;6414;49.570;6.060;2023-05-17T06:45:18;9.00;99.90
12700;DHT22;6414;49.570;6.060;2023-05-17T06:48:05;9.10;99.90
12700;DHT22;6414;49.570;6.060;2023-05-17T06:50:51;9.20;99.90
12700;DHT22;6414;49.570;6.060;2023-05-17T06:53:37;9.30;99.90
12700;DHT22;6414;49.570;6.060;2023-05-17T06:56:23;9.50;99.90
12700;DHT22;6414;49.570;6.060;2023-05-17T06:59:09;9.20;99.90
12700;DHT22;6414;49.570;6.060;2023-05-17T07:01:56;9.40;99.90
12700;DHT22;6414;49.570;6.060;2023-05-17T07:04:42;9.40;99.90
12700;DHT22;6414;49.570;6.060;2023-05-17T07:07:28;9.40;99.90
12700;DHT22;6414;49.570;6.060;2023-05-17T07:10:15;9.60;99.90
12700;DHT22;6414;49.570;6.060;2023-05-17T07:13:01;9.60;99.90
12700;DHT22;6414;49.570;6.060;2023-05-17T07:15:47;9.50;99.90
12700;DHT22;6414;49.570;6.060;2023-05-17T07:18:33;9.40;99.90
12700;DHT22;6414;49.570;6.060;2023-05-17T07:21:19;9.30;99.90
12700;DHT22;6414;49.570;6.060;2023-05-17T07:24:06;9.20;99.90
12700;DHT22;6414;49.570;6.060;2023-05-17T07:26:51;9.10;99.90
12700;DHT22;6414;49.570;6.060;2023-05-17T07:29:38;9.10;99.90
12700;DHT22;6414;49.570;6.060;2023-05-17T07:32:23;9.10;99.90
12700;DHT22;6414;49.570;6.060;2023-05-17T07:35:09;9.50;99.90
12700;DHT22;6414;49.570;6.060;2023-05-17T07:37:55;9.60;99.90
12700;DHT22;6414;49.570;6.060;2023-05-17T07:40:42;9.60;99.90
12700;DHT22;6414;49.570;6.060;2023-05-17T07:43:28;9.80;99.90
12700;DHT22;6414;49.570;6.060;2023-05-17T07:46:14;9.90;99.90
12700;DHT22;6414;49.570;6.060;2023-05-17T07:49:00;10.00;99.90
12700;DHT22;6414;49.570;6.060;2023-05-17T07:51:46;9.90;99.90
12700;DHT22;6414;49.570;6.060;2023-05-17T07:54:33;10.40;99.90
12700;DHT22;6414;49.570;6.060;2023-05-17T07:57:19;10.40;99.90
12700;DHT22;6414;49.570;6.060;2023-05-17T08:00:05;10.80;99.90
12700;DHT22;6414;49.570;6.060;2023-05-17T08:02:51;10.90;70.00
12700;DHT22;6414;49.570;6.060;2023-05-17T08:05:37;11.30;99.90
12700;DHT22;6414;49.570;6.060;2023-05-17T08:08:23;10.80;71.40
12700;DHT22;6414;49.570;6.060;2023-05-17T08:11:10;10.40;38.70
12700;DHT22;6414;49.570;6.060;2023-05-17T08:13:55;10.20;99.90
12700;DHT22;6414;49.570;6.060;2023-05-17T08:16:42;10.00;99.90
12700;DHT22;6414;49.570;6.060;2023-05-17T08:19:27;10.20;99.90
12700;DHT22;6414;49.570;6.060;2023-05-17T08:22:14;10.70;99.90
12700;DHT22;6414;49.570;6.060;2023-05-17T08:25:00;11.10;99.90
12700;DHT22;6414;49.570;6.060;2023-05-17T08:27:46;11.30;1.00
12700;DHT22;6414;49.570;6.060;2023-05-17T08:30:33;11.30;1.00
12700;DHT22;6414;49.570;6.060;2023-05-17T08:33:19;11.30;1.00
12700;DHT22;6414;49.570;6.060;2023-05-17T08:36:05;11.50;1.00
12700;DHT22;6414;49.570;6.060;2023-05-17T08:38:52;12.10;99.90
12700;DHT22;6414;49.570;6.060;2023-05-17T08:41:38;12.00;1.00
12700;DHT22;6414;49.570;6.060;2023-05-17T08:44:25;11.50;99.90
12700;DHT22;6414;49.570;6.060;2023-05-17T08:47:09;11.50;1.00
12700;DHT22;6414;49.570;6.060;2023-05-17T08:49:57;11.30;1.00
12700;DHT22;6414;49.570;6.060;2023-05-17T08:52:46;11.90;99.90
12700;DHT22;6414;49.570;6.060;2023-05-17T08:55:32;11.90;99.90
12700;DHT22;6414;49.570;6.060;2023-05-17T08:58:23;11.80;99.90
12700;DHT22;6414;49.570;6.060;2023-05-17T09:01:06;11.60;1.00
12700;DHT22;6414;49.570;6.060;2023-05-17T09:03:52;11.50;1.00
12700;DHT22;6414;49.570;6.060;2023-05-17T09:06:38;11.30;1.00
12700;DHT22;6414;49.570;6.060;2023-05-17T09:09:25;11.30;1.00
12700;DHT22;6414;49.570;6.060;2023-05-17T09:12:12;12.00;99.90
12700;DHT22;6414;49.570;6.060;2023-05-17T09:15:18;12.00;1.00
12700;DHT22;6414;49.570;6.060;2023-05-17T09:17:59;12.00;1.00
12700;DHT22;6414;49.570;6.060;2023-05-17T09:20:49;11.50;99.90
12700;DHT22;6414;49.570;6.060;2023-05-17T09:23:36;11.60;99.90
12700;DHT22;6414;49.570;6.060;2023-05-17T09:26:21;12.20;99.90
12700;DHT22;6414;49.570;6.060;2023-05-17T09:29:07;13.40;26.50
12700;DHT22;6414;49.570;6.060;2023-05-17T09:31:53;12.60;99.90
12700;DHT22;6414;49.570;6.060;2023-05-17T09:34:39;12.50;1.00
12700;DHT22;6414;49.570;6.060;2023-05-17T09:37:25;13.00;99.90
12700;DHT22;6414;49.570;6.060;2023-05-17T09:40:22;13.30;42.20
12700;DHT22;6414;49.570;6.060;2023-05-17T09:43:07;13.30;29.90
12700;DHT22;6414;49.570;6.060;2023-05-17T09:45:56;12.50;99.90
12700;DHT22;6414;49.570;6.060;2023-05-17T09:48:42;12.30;99.90
12700;DHT22;6414;49.570;6.060;2023-05-17T09:51:32;12.30;1.00
12700;DHT22;6414;49.570;6.060;2023-05-17T09:54:18;12.80;1.00
12700;DHT22;6414;49.570;6.060;2023-05-17T09:57:04;12.60;1.00
12700;DHT22;6414;49.570;6.060;2023-05-17T09:59:50;12.80;1.00
12700;DHT22;6414;49.570;6.060;2023-05-17T10:02:37;12.80;1.00
12700;DHT22;6414;49.570;6.060;2023-05-17T10:05:23;13.50;1.00
12700;DHT22;6414;49.570;6.060;2023-05-17T10:08:09;13.50;1.00
12700;DHT22;6414;49.570;6.060;2023-05-17T10:10:57;13.80;99.90
12700;DHT22;6414;49.570;6.060;2023-05-17T10:14:01;14.00;1.00
12700;DHT22;6414;49.570;6.060;2023-05-17T10:16:40;14.10;99.90
12700;DHT22;6414;49.570;6.060;2023-05-17T10:19:26;13.80;1.00
12700;DHT22;6414;49.570;6.060;2023-05-17T10:22:12;12.90;1.00
12700;DHT22;6414;49.570;6.060;2023-05-17T10:24:58;12.50;99.90
12700;DHT22;6414;49.570;6.060;2023-05-17T10:27:45;12.10;1.00
12700;DHT22;6414;49.570;6.060;2023-05-17T10:30:31;12.10;1.00
12700;DHT22;6414;49.570;6.060;2023-05-17T10:33:18;12.00;1.00
12700;DHT22;6414;49.570;6.060;2023-05-17T10:36:04;12.00;99.90
12700;DHT22;6414;49.570;6.060;2023-05-17T10:38:50;12.00;99.90
12700;DHT22;6414;49.570;6.060;2023-05-17T10:41:38;12.30;99.90
12700;DHT22;6414;49.570;6.060;2023-05-17T10:44:22;12.40;99.90
12700;DHT22;6414;49.570;6.060;2023-05-17T10:47:09;12.40;22.70
12700;DHT22;6414;49.570;6.060;2023-05-17T10:49:55;12.60;99.90
12700;DHT22;6414;49.570;6.060;2023-05-17T10:52:45;12.70;99.90
12700;DHT22;6414;49.570;6.060;2023-05-17T10:55:41;13.50;1.00
12700;DHT22;6414;49.570;6.060;2023-05-17T10:58:26;13.50;1.00
12700;DHT22;6414;49.570;6.060;2023-05-17T11:01:16;12.70;1.00
12700;DHT22;6414;49.570;6.060;2023-05-17T11:04:07;12.90;1.00
12700;DHT22;6414;49.570;6.060;2023-05-17T11:06:45;13.20;1.00
12700;DHT22;6414;49.570;6.060;2023-05-17T11:09:31;13.30;1.00
12700;DHT22;6414;49.570;6.060;2023-05-17T11:12:40;13.70;99.90
12700;DHT22;6414;49.570;6.060;2023-05-17T11:15:07;13.20;99.90
12700;DHT22;6414;49.570;6.060;2023-05-17T11:17:52;13.30;1.00
12700;DHT22;6414;49.570;6.060;2023-05-17T11:20:38;13.20;1.00
12700;DHT22;6414;49.570;6.060;2023-05-17T11:23:25;13.00;1.00
12700;DHT22;6414;49.570;6.060;2023-05-17T11:26:39;13.10;1.00
12700;DHT22;6414;49.570;6.060;2023-05-17T11:29:09;14.10;1.00
12700;DHT22;6414;49.570;6.060;2023-05-17T11:31:55;14.00;1.00
12700;DHT22;6414;49.570;6.060;2023-05-17T11:34:41;13.60;99.90
12700;DHT22;6414;49.570;6.060;2023-05-17T11:37:28;13.10;1.00
12700;DHT22;6414;49.570;6.060;2023-05-17T11:40:17;13.20;1.00
12700;DHT22;6414;49.570;6.060;2023-05-17T11:43:10;13.20;1.00
12700;DHT22;6414;49.570;6.060;2023-05-17T11:45:57;13.20;1.00
12700;DHT22;6414;49.570;6.060;2023-05-17T11:48:48;13.40;1.00
12700;DHT22;6414;49.570;6.060;2023-05-17T11:51:34;13.90;1.00
12700;DHT22;6414;49.570;6.060;2023-05-17T11:54:24;13.90;1.00
12700;DHT22;6414;49.570;6.060;2023-05-17T11:57:10;13.90;99.90
12700;DHT22;6414;49.570;6.060;2023-05-17T12:00:02;14.20;1.00
12700;DHT22;6414;49.570;6.060;2023-05-17T12:02:47;14.50;99.90
12700;DHT22;6414;49.570;6.060;2023-05-17T12:05:33;15.20;99.90
12700;DHT22;6414;49.570;6.060;2023-05-17T12:08:19;15.10;99.90
12700;DHT22;6414;49.570;6.060;2023-05-17T12:11:05;14.00;99.90
12700;DHT22;6414;49.570;6.060;2023-05-17T12:13:51;14.00;99.90
12700;DHT22;6414;49.570;6.060;2023-05-17T12:16:37;13.60;1.00
12700;DHT22;6414;49.570;6.060;2023-05-17T12:19:23;13.10;1.00
12700;DHT22;6414;49.570;6.060;2023-05-17T12:22:11;13.40;1.00
12700;DHT22;6414;49.570;6.060;2023-05-17T12:24:58;13.40;1.00
12700;DHT22;6414;49.570;6.060;2023-05-17T12:27:44;13.80;99.90
12700;DHT22;6414;49.570;6.060;2023-05-17T12:30:30;14.30;99.90
12700;DHT22;6414;49.570;6.060;2023-05-17T12:33:17;14.70;99.90
12700;DHT22;6414;49.570;6.060;2023-05-17T12:36:04;15.00;32.00
12700;DHT22;6414;49.570;6.060;2023-05-17T12:38:50;15.00;31.80
12700;DHT22;6414;49.570;6.060;2023-05-17T12:41:36;15.10;41.00
12700;DHT22;6414;49.570;6.060;2023-05-17T12:44:22;14.60;4.80
12700;DHT22;6414;49.570;6.060;2023-05-17T12:47:08;14.70;4.80
12700;DHT22;6414;49.570;6.060;2023-05-17T12:49:55;14.90;19.30
12700;DHT22;6414;49.570;6.060;2023-05-17T12:52:42;14.70;46.30
12700;DHT22;6414;49.570;6.060;2023-05-17T12:55:33;14.60;42.00
12700;DHT22;6414;49.570;6.060;2023-05-17T12:58:15;14.90;1.00
12700;DHT22;6414;49.570;6.060;2023-05-17T13:01:02;14.60;1.00
12700;DHT22;6414;49.570;6.060;2023-05-17T13:03:50;14.60;1.00
12700;DHT22;6414;49.570;6.060;2023-05-17T13:06:50;14.60;38.30
12700;DHT22;6414;49.570;6.060;2023-05-17T13:09:43;14.30;45.40
12700;DHT22;6414;49.570;6.060;2023-05-17T13:12:24;14.20;1.00
12700;DHT22;6414;49.570;6.060;2023-05-17T13:15:11;15.00;1.00
12700;DHT22;6414;49.570;6.060;2023-05-17T13:17:58;14.90;1.00
12700;DHT22;6414;49.570;6.060;2023-05-17T13:20:44;15.40;1.00
12700;DHT22;6414;49.570;6.060;2023-05-17T13:23:30;15.00;1.00
12700;DHT22;6414;49.570;6.060;2023-05-17T13:26:16;14.40;1.00
12700;DHT22;6414;49.570;6.060;2023-05-17T13:29:02;14.10;1.00
12700;DHT22;6414;49.570;6.060;2023-05-17T13:31:48;14.40;1.00
12700;DHT22;6414;49.570;6.060;2023-05-17T13:34:35;14.80;1.00
12700;DHT22;6414;49.570;6.060;2023-05-17T13:37:20;14.80;1.00
12700;DHT22;6414;49.570;6.060;2023-05-17T13:40:07;14.40;1.00
12700;DHT22;6414;49.570;6.060;2023-05-17T13:42:53;14.90;1.00
12700;DHT22;6414;49.570;6.060;2023-05-17T13:45:39;15.10;1.00
12700;DHT22;6414;49.570;6.060;2023-05-17T13:48:25;15.20;1.00
12700;DHT22;6414;49.570;6.060;2023-05-17T13:51:12;15.30;1.00
12700;DHT22;6414;49.570;6.060;2023-05-17T13:53:58;15.30;1.00
12700;DHT22;6414;49.570;6.060;2023-05-17T13:56:44;15.30;1.00
12700;DHT22;6414;49.570;6.060;2023-05-17T13:59:30;15.40;1.00
12700;DHT22;6414;49.570;6.060;2023-05-17T14:02:17;14.60;1.00
12700;DHT22;6414;49.570;6.060;2023-05-17T14:05:03;14.60;1.00
12700;DHT22;6414;49.570;6.060;2023-05-17T14:07:49;14.60;1.00
12700;DHT22;6414;49.570;6.060;2023-05-17T14:10:35;15.00;1.00
12700;DHT22;6414;49.570;6.060;2023-05-17T14:13:21;14.90;1.00
12700;DHT22;6414;49.570;6.060;2023-05-17T14:16:06;15.10;1.00
12700;DHT22;6414;49.570;6.060;2023-05-17T14:18:53;15.50;1.00
12700;DHT22;6414;49.570;6.060;2023-05-17T14:21:38;14.90;1.00
12700;DHT22;6414;49.570;6.060;2023-05-17T14:24:24;15.10;1.00
12700;DHT22;6414;49.570;6.060;2023-05-17T14:27:10;15.40;1.00
12700;DHT22;6414;49.570;6.060;2023-05-17T14:29:56;15.20;1.00
12700;DHT22;6414;49.570;6.060;2023-05-17T14:32:42;15.10;1.00
12700;DHT22;6414;49.570;6.060;2023-05-17T14:35:28;14.80;1.00
12700;DHT22;6414;49.570;6.060;2023-05-17T14:38:14;15.20;1.00
12700;DHT22;6414;49.570;6.060;2023-05-17T14:41:00;15.20;1.00
12700;DHT22;6414;49.570;6.060;2023-05-17T14:43:46;15.40;1.00
12700;DHT22;6414;49.570;6.060;2023-05-17T14:46:32;15.50;1.00
12700;DHT22;6414;49.570;6.060;2023-05-17T14:49:19;15.60;1.00
12700;DHT22;6414;49.570;6.060;2023-05-17T14:52:05;15.40;1.00
12700;DHT22;6414;49.570;6.060;2023-05-17T14:54:51;15.30;1.00
12700;DHT22;6414;49.570;6.060;2023-05-17T14:57:37;15.00;1.00
12700;DHT22;6414;49.570;6.060;2023-05-17T15:00:23;14.70;1.00
12700;DHT22;6414;49.570;6.060;2023-05-17T15:03:09;14.60;1.00
12700;DHT22;6414;49.570;6.060;2023-05-17T15:05:56;14.60;1.00
12700;DHT22;6414;49.570;6.060;2023-05-17T15:08:42;15.10;1.00
12700;DHT22;6414;49.570;6.060;2023-05-17T15:11:28;15.10;1.00
12700;DHT22;6414;49.570;6.060;2023-05-17T15:14:15;15.10;1.00
12700;DHT22;6414;49.570;6.060;2023-05-17T15:17:01;15.00;1.00
12700;DHT22;6414;49.570;6.060;2023-05-17T15:19:47;15.20;1.00
12700;DHT22;6414;49.570;6.060;2023-05-17T15:22:33;15.70;1.00
12700;DHT22;6414;49.570;6.060;2023-05-17T15:25:19;15.20;1.00
12700;DHT22;6414;49.570;6.060;2023-05-17T15:28:05;15.40;1.00
12700;DHT22;6414;49.570;6.060;2023-05-17T15:31:00;15.90;1.00
12700;DHT22;6414;49.570;6.060;2023-05-17T15:33:46;15.50;1.00
12700;DHT22;6414;49.570;6.060;2023-05-17T15:36:32;15.30;1.00
12700;DHT22;6414;49.570;6.060;2023-05-17T15:39:18;15.20;1.00
12700;DHT22;6414;49.570;6.060;2023-05-17T15:42:04;15.40;1.00
12700;DHT22;6414;49.570;6.060;2023-05-17T15:44:50;15.40;1.00
12700;DHT22;6414;49.570;6.060;2023-05-17T15:47:36;15.40;1.00
12700;DHT22;6414;49.570;6.060;2023-05-17T15:50:22;15.40;1.00
12700;DHT22;6414;49.570;6.060;2023-05-17T15:53:09;15.40;1.00
12700;DHT22;6414;49.570;6.060;2023-05-17T15:55:55;15.30;1.00
12700;DHT22;6414;49.570;6.060;2023-05-17T15:58:41;15.40;1.00
12700;DHT22;6414;49.570;6.060;2023-05-17T16:01:27;15.40;1.00
12700;DHT22;6414;49.570;6.060;2023-05-17T16:04:13;15.30;1.00
12700;DHT22;6414;49.570;6.060;2023-05-17T16:06:59;15.60;1.00
12700;DHT22;6414;49.570;6.060;2023-05-17T16:09:46;15.50;1.00
12700;DHT22;6414;49.570;6.060;2023-05-17T16:12:32;15.50;1.00
12700;DHT22;6414;49.570;6.060;2023-05-17T16:15:18;15.40;1.00
12700;DHT22;6414;49.570;6.060;2023-05-17T16:18:04;15.30;1.00
12700;DHT22;6414;49.570;6.060;2023-05-17T16:21:01;15.20;1.00
12700;DHT22;6414;49.570;6.060;2023-05-17T16:23:45;15.10;1.00
12700;DHT22;6414;49.570;6.060;2023-05-17T16:26:33;15.00;1.00
12700;DHT22;6414;49.570;6.060;2023-05-17T16:29:18;15.00;1.00
12700;DHT22;6414;49.570;6.060;2023-05-17T16:32:05;14.90;1.00
12700;DHT22;6414;49.570;6.060;2023-05-17T16:34:51;14.90;1.00
12700;DHT22;6414;49.570;6.060;2023-05-17T16:37:37;14.70;1.00
12700;DHT22;6414;49.570;6.060;2023-05-17T16:40:23;14.70;1.00
12700;DHT22;6414;49.570;6.060;2023-05-17T16:43:10;14.80;1.00
12700;DHT22;6414;49.570;6.060;2023-05-17T16:45:57;14.80;1.00
12700;DHT22;6414;49.570;6.060;2023-05-17T16:48:44;14.80;1.00
12700;DHT22;6414;49.570;6.060;2023-05-17T16:51:30;14.70;1.00
12700;DHT22;6414;49.570;6.060;2023-05-17T16:54:16;14.70;1.00
12700;DHT22;6414;49.570;6.060;2023-05-17T16:57:02;14.60;1.00
12700;DHT22;6414;49.570;6.060;2023-05-17T16:59:50;14.60;1.00
12700;DHT22;6414;49.570;6.060;2023-05-17T17:02:37;14.60;1.00
12700;DHT22;6414;49.570;6.060;2023-05-17T17:05:24;14.50;1.00
12700;DHT22;6414;49.570;6.060;2023-05-17T17:08:11;14.50;1.00
12700;DHT22;6414;49.570;6.060;2023-05-17T17:10:56;14.60;1.00
12700;DHT22;6414;49.570;6.060;2023-05-17T17:13:43;14.70;1.00
12700;DHT22;6414;49.570;6.060;2023-05-17T17:16:30;14.60;1.00
12700;DHT22;6414;49.570;6.060;2023-05-17T17:19:16;14.40;1.00
12700;DHT22;6414;49.570;6.060;2023-05-17T17:22:01;14.40;1.00
12700;DHT22;6414;49.570;6.060;2023-05-17T17:24:48;14.30;1.00
12700;DHT22;6414;49.570;6.060;2023-05-17T17:27:34;14.30;1.00
12700;DHT22;6414;49.570;6.060;2023-05-17T17:30:21;14.20;1.00
12700;DHT22;6414;49.570;6.060;2023-05-17T17:33:08;14.20;1.00
12700;DHT22;6414;49.570;6.060;2023-05-17T17:35:55;14.10;1.00
12700;DHT22;6414;49.570;6.060;2023-05-17T17:38:42;14.10;1.00
12700;DHT22;6414;49.570;6.060;2023-05-17T17:41:28;14.00;1.00
12700;DHT22;6414;49.570;6.060;2023-05-17T17:44:15;14.00;1.00
12700;DHT22;6414;49.570;6.060;2023-05-17T17:47:00;13.90;1.00
12700;DHT22;6414;49.570;6.060;2023-05-17T17:49:47;13.90;1.00
12700;DHT22;6414;49.570;6.060;2023-05-17T17:52:33;13.90;1.00
12700;DHT22;6414;49.570;6.060;2023-05-17T17:55:19;13.90;1.00
12700;DHT22;6414;49.570;6.060;2023-05-17T17:58:06;13.80;1.00
12700;DHT22;6414;49.570;6.060;2023-05-17T18:00:52;13.80;1.00
12700;DHT22;6414;49.570;6.060;2023-05-17T18:03:39;13.70;1.00
12700;DHT22;6414;49.570;6.060;2023-05-17T18:06:25;13.70;1.00
12700;DHT22;6414;49.570;6.060;2023-05-17T18:09:12;13.60;1.00
12700;DHT22;6414;49.570;6.060;2023-05-17T18:11:58;13.60;1.00